Time;durP1;ratioP1;P1;durP2;ratioP2;P2;SDS_P1;SDS_P2;PMS_P1;PMS_P2;Temp;Humidity;BMP_temperature;BMP_pressure;BME280_temperature;BME280_humidity;BME280_pressure;Samples;Min_cycle;Max_cycle;Signal;HPM_P1;HPM_P2
2021/08/03 00:01:38;;;;;;;15.73;9.20;;;27.40;60.40;;;;;;4201205;28;20105;-48
2021/08/03 00:03:57;;;;;;;13.50;9.20;;;27.40;60.40;;;;;;4201017;28;20053;-49
2021/08/03 00:06:09;;;;;;;12.23;8.05;;;27.40;60.50;;;;;;4200907;28;20105;-50
2021/08/03 00:08:22;;;;;;;15.88;8.50;;;27.40;60.40;;;;;;4200936;28;20045;-48
2021/08/03 00:10:24;;;;;;;15.20;8.52;;;27.40;60.40;;;;;;4201007;28;20051;-48
2021/08/03 00:12:26;;;;;;;16.08;8.32;;;27.40;60.40;;;;;;4200879;28;20041;-47
2021/08/03 00:14:29;;;;;;;14.27;8.25;;;27.40;60.30;;;;;;4200704;28;20045;-50
2021/08/03 00:16:35;;;;;;;18.83;7.72;;;27.40;60.30;;;;;;4200797;28;20049;-49
2021/08/03 00:18:39;;;;;;;11.68;7.70;;;27.40;60.30;;;;;;4200732;28;20060;-53
2021/08/03 00:20:41;;;;;;;15.75;7.40;;;27.40;60.30;;;;;;4200691;28;20045;-54
2021/08/03 00:22:43;;;;;;;15.85;7.93;;;27.40;60.30;;;;;;4200565;28;20059;-52
2021/08/03 00:24:48;;;;;;;12.15;7.13;;;27.30;60.20;;;;;;4200714;28;20052;-47
2021/08/03 00:26:51;;;;;;;13.45;7.10;;;27.40;60.20;;;;;;4200879;28;20053;-51
2021/08/03 00:28:53;;;;;;;14.00;7.28;;;27.40;60.20;;;;;;4200773;28;20047;-52
2021/08/03 00:30:55;;;;;;;11.30;7.13;;;27.40;60.20;;;;;;4200690;28;20049;-47
2021/08/03 00:32:58;;;;;;;14.43;7.45;;;27.40;60.20;;;;;;4200608;28;20041;-45
2021/08/03 00:35:00;;;;;;;13.90;7.30;;;27.40;60.30;;;;;;4200599;28;20049;-50
2021/08/03 00:37:02;;;;;;;19.13;7.50;;;27.40;60.20;;;;;;4200572;28;20070;-50
2021/08/03 00:39:05;;;;;;;12.45;6.50;;;27.40;60.30;;;;;;4200593;28;20041;-48
2021/08/03 00:41:12;;;;;;;14.75;6.72;;;27.30;60.30;;;;;;4200209;28;20041;-46
2021/08/03 00:43:14;;;;;;;16.58;6.93;;;27.40;60.30;;;;;;4199648;28;20053;-46
2021/08/03 00:45:16;;;;;;;17.52;7.35;;;27.40;60.40;;;;;;4200224;28;20068;-45
2021/08/03 00:47:20;;;;;;;16.17;7.20;;;27.30;60.40;;;;;;4200355;28;20045;-46
2021/08/03 00:49:22;;;;;;;12.68;6.95;;;27.40;60.40;;;;;;4200373;28;20049;-47
2021/08/03 00:51:24;;;;;;;11.65;6.32;;;27.30;60.50;;;;;;4200217;28;20104;-50
2021/08/03 00:53:26;;;;;;;15.32;7.10;;;27.30;60.50;;;;;;4200411;28;20045;-50
2021/08/03 00:55:28;;;;;;;14.20;7.15;;;27.30;60.50;;;;;;4200157;28;20049;-47
2021/08/03 00:57:32;;;;;;;9.02;5.57;;;27.30;60.50;;;;;;4200084;28;20088;-47
2021/08/03 00:59:35;;;;;;;13.45;5.93;;;27.30;60.60;;;;;;4200113;28;20044;-46
2021/08/03 01:01:37;;;;;;;10.63;5.97;;;27.30;60.60;;;;;;4200025;28;20055;-45
2021/08/03 01:03:39;;;;;;;13.88;5.28;;;27.30;60.50;;;;;;4200037;28;20053;-50
2021/08/03 01:06:12;;;;;;;14.60;5.53;;;27.30;60.60;;;;;;4199477;28;20081;-46
2021/08/03 01:08:22;;;;;;;12.65;5.82;;;27.30;60.50;;;;;;4199994;28;20072;-47
2021/08/03 01:10:55;;;;;;;14.57;5.38;;;27.20;60.50;;;;;;4199965;28;20049;-46
2021/08/03 01:13:02;;;;;;;12.95;5.75;;;27.30;60.50;;;;;;4200035;28;20056;-46
2021/08/03 01:15:12;;;;;;;11.18;5.82;;;27.20;60.40;;;;;;4200002;28;20079;-49
2021/08/03 01:17:40;;;;;;;11.38;5.50;;;27.20;60.40;;;;;;4199906;28;20045;-49
2021/08/03 01:20:04;;;;;;;7.35;5.05;;;27.20;60.30;;;;;;4199908;28;20060;-47
2021/08/03 01:22:32;;;;;;;10.13;5.45;;;27.20;60.30;;;;;;4199806;28;20045;-50
2021/08/03 01:25:01;;;;;;;8.57;4.53;;;27.20;60.20;;;;;;4199909;28;20124;-51
2021/08/03 01:27:12;;;;;;;7.65;4.60;;;27.20;60.20;;;;;;4199890;28;20045;-51
2021/08/03 01:29:18;;;;;;;11.75;5.15;;;27.20;60.20;;;;;;4199788;28;20079;-46
2021/08/03 01:31:25;;;;;;;9.80;4.57;;;27.20;60.10;;;;;;4199686;28;20041;-47
2021/08/03 01:33:31;;;;;;;7.40;4.28;;;27.10;60.10;;;;;;4199604;28;20049;-50
2021/08/03 01:35:34;;;;;;;10.73;4.60;;;27.20;60.00;;;;;;4199582;28;20049;-48
2021/08/03 01:37:36;;;;;;;9.93;4.80;;;27.10;59.80;;;;;;4199609;28;20139;-50
2021/08/03 01:39:43;;;;;;;13.38;4.50;;;27.20;59.80;;;;;;4199543;28;20049;-46
2021/08/03 01:41:49;;;;;;;9.93;4.25;;;27.10;59.70;;;;;;4199090;28;20059;-46
2021/08/03 01:43:54;;;;;;;8.48;4.55;;;27.10;59.60;;;;;;4199582;28;20065;-52
2021/08/03 01:45:57;;;;;;;;;;;27.10;59.40;;;;;;4199848;28;20105;-51
2021/08/03 01:48:01;;;;;;;7.18;4.30;;;27.10;59.40;;;;;;4199432;28;19924;-48
2021/08/03 01:50:06;;;;;;;6.15;3.85;;;27.10;59.20;;;;;;4199381;28;20045;-48
2021/08/03 01:52:11;;;;;;;9.20;4.60;;;27.20;59.10;;;;;;4199209;28;20045;-50
2021/08/03 01:54:13;;;;;;;7.20;3.88;;;27.10;59.10;;;;;;4199389;28;20048;-50
2021/08/03 01:56:16;;;;;;;6.55;4.28;;;27.10;59.10;;;;;;4199201;28;20049;-49
2021/08/03 01:58:20;;;;;;;11.65;4.32;;;27.10;59.10;;;;;;4199258;28;20056;-51
2021/08/03 02:00:22;;;;;;;7.88;3.80;;;27.10;59.10;;;;;;4199231;28;20059;-50
2021/08/03 02:02:25;;;;;;;8.50;4.32;;;27.10;59.00;;;;;;4199175;28;20049;-51
2021/08/03 02:04:30;;;;;;;7.15;3.83;;;27.10;59.00;;;;;;4199155;28;20414;-49
2021/08/03 02:06:32;;;;;;;;;;;27.00;58.90;;;;;;4199475;28;20083;-47
2021/08/03 02:08:35;;;;;;;7.88;4.47;;;27.10;58.90;;;;;;4199064;28;20008;-50
2021/08/03 02:10:39;;;;;;;12.15;4.13;;;27.00;58.80;;;;;;4199047;28;20084;-46
2021/08/03 02:12:42;;;;;;;6.28;3.50;;;27.00;58.70;;;;;;4199057;28;20045;-49
2021/08/03 02:14:45;;;;;;;5.28;4.20;;;27.10;58.70;;;;;;4199085;28;20048;-47
2021/08/03 02:16:48;;;;;;;9.70;3.97;;;27.00;58.70;;;;;;4198097;28;20108;-50
2021/08/03 02:18:53;;;;;;;6.40;3.45;;;27.00;58.60;;;;;;4199111;28;20067;-50
2021/08/03 02:20:56;;;;;;;7.60;3.83;;;27.00;58.60;;;;;;4198967;28;20055;-50
2021/08/03 02:22:58;;;;;;;9.55;5.10;;;27.00;58.50;;;;;;4198697;28;20108;-55
2021/08/03 02:25:00;;;;;;;8.02;3.80;;;27.10;58.50;;;;;;4198767;28;20106;-50
2021/08/03 02:27:02;;;;;;;7.32;4.15;;;27.00;58.50;;;;;;4198569;28;20045;-53
2021/08/03 02:29:06;;;;;;;4.60;3.20;;;27.00;58.50;;;;;;4198657;28;20041;-54
2021/08/03 02:31:15;;;;;;;5.60;3.53;;;27.00;58.50;;;;;;4198960;28;20079;-51
2021/08/03 02:33:33;;;;;;;4.20;3.47;;;27.00;58.50;;;;;;4198381;28;20041;-52
2021/08/03 02:35:42;;;;;;;7.40;3.50;;;27.00;58.50;;;;;;4198669;28;20053;-52
2021/08/03 02:37:56;;;;;;;8.38;3.75;;;27.00;58.40;;;;;;4198858;28;20104;-52
2021/08/03 02:40:01;;;;;;;5.45;3.83;;;27.00;58.40;;;;;;4198699;28;20045;-49
2021/08/03 02:42:05;;;;;;;12.18;5.43;;;26.90;58.30;;;;;;4198663;28;20471;-53
2021/08/03 02:44:08;;;;;;;4.70;3.42;;;27.00;58.30;;;;;;4198389;28;20052;-52
2021/08/03 02:46:12;;;;;;;4.78;3.10;;;27.00;58.30;;;;;;4198522;28;20064;-52
2021/08/03 02:48:16;;;;;;;8.15;4.22;;;27.00;58.30;;;;;;4198680;28;20045;-47
2021/08/03 02:50:21;;;;;;;6.88;3.75;;;26.90;58.30;;;;;;4198544;28;20045;-50
2021/08/03 02:52:27;;;;;;;8.40;3.80;;;26.90;58.40;;;;;;4198472;28;20109;-46
2021/08/03 02:54:39;;;;;;;5.25;3.78;;;27.00;58.30;;;;;;4198442;28;20044;-46
2021/08/03 02:56:42;;;;;;;8.43;3.85;;;26.90;58.30;;;;;;4184943;28;20050;-46
2021/08/03 02:58:46;;;;;;;8.27;4.00;;;26.90;58.30;;;;;;4182032;28;20049;-46
2021/08/03 03:00:49;;;;;;;5.63;3.95;;;26.90;58.20;;;;;;4181978;28;20052;-47
2021/08/03 03:02:52;;;;;;;7.43;4.13;;;26.90;58.20;;;;;;4181352;28;20419;-46
2021/08/03 03:05:00;;;;;;;6.65;3.90;;;26.90;58.20;;;;;;4181763;28;20049;-47
2021/08/03 03:07:09;;;;;;;6.53;4.38;;;26.90;58.20;;;;;;4164602;28;20042;-50
2021/08/03 03:09:13;;;;;;;5.30;3.92;;;26.90;58.20;;;;;;4181744;28;20080;-48
2021/08/03 03:11:17;;;;;;;8.60;4.00;;;26.90;58.20;;;;;;4181239;28;20059;-46
2021/08/03 03:13:29;;;;;;;6.00;4.35;;;26.90;58.20;;;;;;4181647;28;20052;-52
2021/08/03 03:15:32;;;;;;;7.13;4.03;;;26.90;58.20;;;;;;4181931;28;20148;-47
2021/08/03 03:17:35;;;;;;;5.97;3.35;;;26.90;58.30;;;;;;4181703;28;20069;-46
2021/08/03 03:19:40;;;;;;;5.30;3.63;;;26.90;58.30;;;;;;4181763;28;20128;-48
2021/08/03 03:21:42;;;;;;;;;;;26.90;58.10;;;;;;4182025;28;20045;-46
2021/08/03 03:23:48;;;;;;;5.55;4.20;;;26.90;58.10;;;;;;4181679;28;19931;-48
2021/08/03 03:25:52;;;;;;;4.75;3.83;;;26.90;57.90;;;;;;4181551;28;20076;-48
2021/08/03 03:27:58;;;;;;;6.43;4.40;;;26.90;57.90;;;;;;4182370;28;20049;-47
2021/08/03 03:30:02;;;;;;;9.65;3.97;;;26.90;57.90;;;;;;4184943;28;20045;-49
2021/08/03 03:32:05;;;;;;;6.53;3.63;;;26.90;57.90;;;;;;4184927;28;20139;-51
2021/08/03 03:34:10;;;;;;;6.38;3.83;;;26.90;57.90;;;;;;4185206;28;20045;-49
2021/08/03 03:36:13;;;;;;;7.85;3.80;;;26.90;57.70;;;;;;4186580;28;20053;-47
2021/08/03 03:38:21;;;;;;;4.88;3.65;;;26.90;57.60;;;;;;4184978;28;20049;-54
2021/08/03 03:40:25;;;;;;;6.15;3.72;;;26.90;57.60;;;;;;4185067;28;20045;-47
2021/08/03 03:42:31;;;;;;;6.55;3.60;;;26.90;57.50;;;;;;4184526;28;20052;-48
2021/08/03 03:44:34;;;;;;;7.72;4.22;;;26.80;57.50;;;;;;4184959;28;20055;-50
2021/08/03 03:46:55;;;;;;;7.47;3.60;;;26.80;57.50;;;;;;4183925;28;20049;-50
2021/08/03 03:49:22;;;;;;;11.93;5.20;;;26.80;57.40;;;;;;4168140;28;20046;-51
2021/08/03 03:51:28;;;;;;;7.63;4.05;;;26.80;57.30;;;;;;4193322;28;20041;-49
2021/08/03 03:53:56;;;;;;;9.65;3.58;;;26.80;57.30;;;;;;4201138;28;20044;-48
2021/08/03 03:56:01;;;;;;;5.50;3.67;;;26.70;57.20;;;;;;4201033;28;20045;-47
2021/08/03 03:58:04;;;;;;;4.85;3.38;;;26.80;57.20;;;;;;4201148;28;20051;-49
2021/08/03 04:00:07;;;;;;;5.88;3.95;;;26.80;57.20;;;;;;4200978;28;20045;-47
2021/08/03 04:02:12;;;;;;;6.32;3.58;;;26.70;57.20;;;;;;4200997;28;20057;-52
2021/08/03 04:04:17;;;;;;;5.65;3.50;;;26.80;57.10;;;;;;4201047;28;20044;-48
2021/08/03 04:06:19;;;;;;;7.85;3.60;;;26.80;57.10;;;;;;4191444;28;20052;-53
2021/08/03 04:08:21;;;;;;;8.50;4.00;;;26.80;57.20;;;;;;4184478;28;20056;-51
2021/08/03 04:10:34;;;;;;;4.70;3.47;;;26.80;57.20;;;;;;4184303;28;20051;-50
2021/08/03 04:12:37;;;;;;;7.72;3.47;;;26.80;57.20;;;;;;4184424;28;20067;-49
2021/08/03 04:14:43;;;;;;;4.78;3.53;;;26.80;57.20;;;;;;4184417;28;20473;-49
2021/08/03 04:16:45;;;;;;;6.03;3.58;;;26.80;57.60;;;;;;4168068;28;20057;-50
2021/08/03 04:18:47;;;;;;;6.60;3.90;;;26.80;57.10;;;;;;4167773;28;20109;-50
2021/08/03 04:20:49;;;;;;;9.95;4.20;;;26.80;57.10;;;;;;4167725;28;20054;-53
2021/08/03 04:22:52;;;;;;;12.38;3.90;;;26.80;57.00;;;;;;4167594;28;20053;-50
2021/08/03 04:24:54;;;;;;;6.68;3.95;;;26.80;57.10;;;;;;4167910;28;20056;-50
2021/08/03 04:26:56;;;;;;;6.50;3.63;;;26.80;57.10;;;;;;4167806;28;20076;-48
2021/08/03 04:28:58;;;;;;;5.88;3.30;;;26.80;57.10;;;;;;4167516;28;20050;-53
2021/08/03 04:31:00;;;;;;;7.18;3.90;;;26.80;57.10;;;;;;4167522;28;20042;-46
2021/08/03 04:33:02;;;;;;;6.65;3.78;;;26.80;57.10;;;;;;4167523;28;20054;-46
2021/08/03 04:35:05;;;;;;;7.35;3.35;;;26.80;57.10;;;;;;4167465;28;20046;-50
2021/08/03 04:37:08;;;;;;;6.75;4.22;;;26.70;57.10;;;;;;4167713;28;20076;-47
2021/08/03 04:39:10;;;;;;;11.70;4.97;;;26.80;57.10;;;;;;4167252;28;20050;-46
2021/08/03 04:41:12;;;;;;;13.20;4.82;;;26.80;57.20;;;;;;4167079;28;20085;-46
2021/08/03 04:43:14;;;;;;;14.18;5.70;;;26.80;57.20;;;;;;4167262;28;20430;-48
2021/08/03 04:45:16;;;;;;;11.02;5.97;;;26.80;57.20;;;;;;4167167;28;20058;-48
2021/08/03 04:47:18;;;;;;;11.93;4.82;;;26.70;57.20;;;;;;4167308;28;20054;-50
2021/08/03 04:49:20;;;;;;;13.38;8.02;;;26.80;57.20;;;;;;4167463;28;20045;-47
2021/08/03 04:51:22;;;;;;;25.08;9.00;;;26.80;57.20;;;;;;4167418;28;20058;-52
2021/08/03 04:53:24;;;;;;;23.17;7.60;;;26.80;57.40;;;;;;4174587;28;20052;-53
2021/08/03 04:55:26;;;;;;;15.77;6.90;;;26.60;57.90;;;;;;4182843;28;20045;-46
2021/08/03 04:57:28;;;;;;;20.33;7.90;;;26.60;58.00;;;;;;4182748;28;20113;-49
2021/08/03 04:59:30;;;;;;;35.00;20.27;;;26.30;58.40;;;;;;4183653;28;20430;-47
2021/08/03 05:01:32;;;;;;;28.30;19.73;;;26.00;59.30;;;;;;4183557;28;20049;-49
2021/08/03 05:03:35;;;;;;;27.65;19.63;;;25.90;59.70;;;;;;4185135;28;20045;-46
2021/08/03 05:05:37;;;;;;;35.25;13.32;;;25.90;59.90;;;;;;4199945;28;20117;-48
2021/08/03 05:07:39;;;;;;;18.02;9.25;;;26.00;59.80;;;;;;4184215;28;20045;-48
2021/08/03 05:09:41;;;;;;;18.58;7.90;;;26.00;59.70;;;;;;4183526;28;20164;-52
2021/08/03 05:11:43;;;;;;;13.52;7.07;;;26.00;59.70;;;;;;4183435;28;20054;-46
2021/08/03 05:13:45;;;;;;;15.98;6.57;;;26.00;59.60;;;;;;4182987;28;20048;-47
2021/08/03 05:15:48;;;;;;;18.48;9.45;;;26.00;59.80;;;;;;4183071;28;20046;-46
2021/08/03 05:17:51;;;;;;;25.70;12.55;;;26.00;59.70;;;;;;4182899;28;20069;-46
2021/08/03 05:19:52;;;;;;;24.65;13.45;;;26.00;59.80;;;;;;4182840;28;20120;-47
2021/08/03 05:21:55;;;;;;;25.02;13.25;;;26.00;59.80;;;;;;4182946;28;20046;-48
2021/08/03 05:23:56;;;;;;;15.93;9.57;;;26.00;59.70;;;;;;4183018;28;20521;-46
2021/08/03 05:25:58;;;;;;;14.18;8.38;;;26.00;60.00;;;;;;4182809;28;20076;-47
2021/08/03 05:28:01;;;;;;;11.85;6.90;;;26.00;60.00;;;;;;4182713;28;20049;-48
2021/08/03 05:30:03;;;;;;;13.30;6.25;;;25.90;60.10;;;;;;4182647;28;20132;-47
2021/08/03 05:32:05;;;;;;;16.65;7.28;;;25.90;60.20;;;;;;4182864;28;20135;-47
2021/08/03 05:34:08;;;;;;;15.27;6.53;;;25.90;60.20;;;;;;4182826;28;20042;-48
2021/08/03 05:36:10;;;;;;;15.82;7.75;;;25.90;60.20;;;;;;4182637;28;20072;-46
2021/08/03 05:38:12;;;;;;;10.65;4.80;;;25.90;60.10;;;;;;4182543;28;20049;-47
2021/08/03 05:40:14;;;;;;;9.18;4.50;;;25.90;60.20;;;;;;4182407;28;20049;-46
2021/08/03 05:42:16;;;;;;;9.25;4.53;;;25.90;60.00;;;;;;4182448;28;20056;-48
2021/08/03 05:44:18;;;;;;;11.50;4.70;;;25.90;60.20;;;;;;4182728;28;20058;-48
2021/08/03 05:46:22;;;;;;;11.82;4.78;;;25.90;60.10;;;;;;4182613;28;20049;-47
2021/08/03 05:48:24;;;;;;;6.45;4.28;;;25.90;60.00;;;;;;4182252;28;20383;-47
2021/08/03 05:50:26;;;;;;;10.65;4.35;;;26.00;60.00;;;;;;4182735;28;20041;-51
2021/08/03 05:52:28;;;;;;;16.35;4.05;;;26.00;59.90;;;;;;4182717;28;20068;-48
2021/08/03 05:54:30;;;;;;;22.98;4.70;;;26.00;59.90;;;;;;4182821;28;20050;-46
2021/08/03 05:56:32;;;;;;;14.25;3.78;;;26.00;60.00;;;;;;4182870;28;20049;-46
2021/08/03 05:58:34;;;;;;;13.48;4.65;;;25.90;60.00;;;;;;4181174;28;20042;-45
2021/08/03 06:00:38;;;;;;;12.20;3.97;;;25.90;60.20;;;;;;4182529;28;20046;-46
2021/08/03 06:02:41;;;;;;;23.30;4.00;;;25.80;60.50;;;;;;4182700;28;20103;-47
2021/08/03 06:04:43;;;;;;;17.92;4.60;;;25.80;60.60;;;;;;4182677;28;20046;-47
2021/08/03 06:06:48;;;;;;;19.85;4.20;;;25.90;60.60;;;;;;4182487;28;20051;-52
2021/08/03 06:08:50;;;;;;;16.88;3.97;;;25.90;60.60;;;;;;4185585;28;20045;-51
2021/08/03 06:10:53;;;;;;;14.05;4.65;;;26.00;60.50;;;;;;4182239;28;20052;-47
2021/08/03 06:12:56;;;;;;;9.40;4.30;;;26.10;60.10;;;;;;4182314;28;20052;-44
2021/08/03 06:15:02;;;;;;;8.52;3.58;;;26.10;59.90;;;;;;4182342;28;20050;-47
2021/08/03 06:17:07;;;;;;;9.10;4.47;;;26.10;59.80;;;;;;4165493;28;20052;-45
2021/08/03 06:19:13;;;;;;;7.78;4.03;;;26.10;59.70;;;;;;4181957;28;20049;-52
2021/08/03 06:21:19;;;;;;;9.00;4.15;;;26.00;59.70;;;;;;4182186;28;20107;-48
2021/08/03 06:23:23;;;;;;;7.95;3.70;;;26.10;59.70;;;;;;4164878;28;20057;-52
2021/08/03 06:25:27;;;;;;;11.60;4.32;;;26.10;59.60;;;;;;4182171;28;20049;-52
2021/08/03 06:27:30;;;;;;;6.13;4.05;;;26.20;59.60;;;;;;4164984;28;20069;-49
2021/08/03 06:29:38;;;;;;;14.45;5.40;;;26.20;59.60;;;;;;4164816;28;20052;-52
2021/08/03 06:31:41;;;;;;;15.52;5.65;;;26.30;59.70;;;;;;4181238;28;20050;-53
2021/08/03 06:33:47;;;;;;;53.17;41.65;;;26.30;59.90;;;;;;4164873;28;20049;-50
2021/08/03 06:35:51;;;;;;;35.65;28.48;;;26.30;59.90;;;;;;4181647;28;20081;-51
2021/08/03 06:37:55;;;;;;;;;;;26.20;59.70;;;;;;4182268;28;20053;-53
2021/08/03 06:40:00;;;;;;;17.83;12.57;;;26.30;59.70;;;;;;4181701;28;19928;-52
2021/08/03 06:42:24;;;;;;;21.70;11.43;;;26.30;59.80;;;;;;4164939;28;20062;-50
2021/08/03 06:44:44;;;;;;;15.80;9.73;;;26.20;59.80;;;;;;4181854;28;20053;-50
2021/08/03 06:46:53;;;;;;;13.27;7.63;;;26.30;59.40;;;;;;4181789;28;20061;-51
2021/08/03 06:49:02;;;;;;;11.10;7.80;;;26.20;59.60;;;;;;4165566;28;20069;-49
2021/08/03 06:51:08;;;;;;;9.45;5.95;;;26.30;59.40;;;;;;4181680;28;20053;-52
2021/08/03 06:53:13;;;;;;;8.20;4.75;;;26.30;59.40;;;;;;4163842;28;20045;-53
2021/08/03 06:55:18;;;;;;;13.85;5.38;;;26.30;59.20;;;;;;4148154;28;20050;-53
2021/08/03 06:57:22;;;;;;;10.32;6.32;;;26.30;59.30;;;;;;4181263;28;20050;-56
2021/08/03 06:59:33;;;;;;;17.65;5.65;;;26.20;59.70;;;;;;4164491;28;20054;-54
2021/08/03 07:01:47;;;;;;;25.90;5.47;;;26.30;59.30;;;;;;4164056;28;20133;-54
2021/08/03 07:03:55;;;;;;;;;;;26.50;59.40;;;;;;4166244;28;20061;-50
2021/08/03 07:05:58;;;;;;;24.55;4.78;;;26.50;59.50;;;;;;4181415;28;19928;-52
2021/08/03 07:08:00;;;;;;;32.20;5.68;;;26.50;59.60;;;;;;4148287;28;20047;-50
2021/08/03 07:10:05;;;;;;;31.58;5.32;;;26.60;59.50;;;;;;4181646;28;20081;-54
2021/08/03 07:12:10;;;;;;;15.52;4.78;;;26.60;59.40;;;;;;4181047;28;20050;-53
2021/08/03 07:14:14;;;;;;;12.07;4.78;;;26.70;59.20;;;;;;4163736;28;20103;-53
2021/08/03 07:16:18;;;;;;;18.02;4.72;;;26.80;59.00;;;;;;4180517;28;20129;-52
2021/08/03 07:18:22;;;;;;;18.10;5.03;;;26.80;58.90;;;;;;4163624;28;20054;-53
2021/08/03 07:20:24;;;;;;;18.77;4.90;;;26.90;58.90;;;;;;4180754;28;20056;-53
2021/08/03 07:22:27;;;;;;;13.07;4.75;;;26.90;59.20;;;;;;4163546;28;20050;-49
2021/08/03 07:24:30;;;;;;;18.92;6.25;;;26.90;59.10;;;;;;4180699;28;20049;-53
2021/08/03 07:26:33;;;;;;;12.50;4.45;;;26.90;58.90;;;;;;4147485;28;20062;-50
2021/08/03 07:28:35;;;;;;;16.33;4.72;;;26.90;59.20;;;;;;4163569;28;20069;-52
2021/08/03 07:30:37;;;;;;;10.90;3.72;;;26.90;58.90;;;;;;4180917;28;20053;-51
2021/08/03 07:32:41;;;;;;;10.75;4.18;;;26.90;59.00;;;;;;4180440;28;20111;-50
2021/08/03 07:34:44;;;;;;;15.80;4.20;;;26.90;58.90;;;;;;4163627;28;20056;-50
2021/08/03 07:36:46;;;;;;;11.63;4.28;;;26.90;59.00;;;;;;4180986;28;20049;-55
2021/08/03 07:38:58;;;;;;;11.57;5.57;;;26.90;58.90;;;;;;4163973;28;20054;-50
2021/08/03 07:41:00;;;;;;;26.23;8.32;;;26.90;58.90;;;;;;4164011;28;20100;-52
2021/08/03 07:43:04;;;;;;;40.97;10.40;;;26.90;59.20;;;;;;4164007;28;20046;-50
2021/08/03 07:45:07;;;;;;;46.37;12.50;;;26.90;59.10;;;;;;4164134;28;20123;-52
2021/08/03 07:47:19;;;;;;;56.22;15.52;;;27.00;59.10;;;;;;4147858;28;20307;-52
2021/08/03 07:49:22;;;;;;;33.45;9.90;;;26.90;59.50;;;;;;4180965;28;20056;-47
2021/08/03 07:51:26;;;;;;;47.47;13.10;;;27.00;59.40;;;;;;4181105;28;20045;-48
2021/08/03 07:53:28;;;;;;;41.42;10.13;;;27.00;59.80;;;;;;4163996;28;20054;-48
2021/08/03 07:55:31;;;;;;;34.13;11.13;;;27.00;59.70;;;;;;4164149;28;20096;-49
2021/08/03 07:57:33;;;;;;;26.65;9.25;;;27.00;60.00;;;;;;4147707;28;20146;-48
2021/08/03 07:59:35;;;;;;;32.08;10.68;;;27.00;59.90;;;;;;4163925;28;20045;-49
2021/08/03 08:01:38;;;;;;;42.13;11.90;;;27.00;59.70;;;;;;4163624;28;20046;-52
2021/08/03 08:03:40;;;;;;;45.67;11.82;;;27.00;60.00;;;;;;4163540;28;20046;-45
2021/08/03 08:05:43;;;;;;;36.47;10.85;;;27.00;59.70;;;;;;4180939;28;20073;-50
2021/08/03 08:07:45;;;;;;;25.00;8.23;;;27.00;59.50;;;;;;4147659;28;20081;-50
2021/08/03 08:09:48;;;;;;;27.25;8.18;;;27.00;59.40;;;;;;4163721;28;20052;-51
2021/08/03 08:11:50;;;;;;;28.02;9.73;;;27.00;59.40;;;;;;4163782;28;20054;-49
2021/08/03 08:13:52;;;;;;;22.35;9.38;;;27.00;59.50;;;;;;4147501;28;20042;-49
2021/08/03 08:15:55;;;;;;;26.95;9.23;;;27.00;59.50;;;;;;4165857;28;20069;-49
2021/08/03 08:17:57;;;;;;;29.70;9.65;;;27.00;59.40;;;;;;4166857;28;20053;-48
2021/08/03 08:20:00;;;;;;;28.02;10.45;;;27.00;59.40;;;;;;4183996;28;20109;-47
2021/08/03 08:22:03;;;;;;;30.50;9.40;;;27.00;59.50;;;;;;4183804;28;20060;-49
2021/08/03 08:24:06;;;;;;;22.17;8.88;;;27.00;59.50;;;;;;4166631;28;20533;-47
2021/08/03 08:26:08;;;;;;;28.98;10.07;;;27.00;59.40;;;;;;4166558;28;20049;-51
2021/08/03 08:28:11;;;;;;;27.95;9.70;;;27.00;59.80;;;;;;4166409;28;20118;-50
2021/08/03 08:30:14;;;;;;;26.35;9.48;;;27.00;59.60;;;;;;4150604;28;20126;-52
2021/08/03 08:32:17;;;;;;;25.77;8.55;;;27.00;59.50;;;;;;4166603;28;20108;-51
2021/08/03 08:34:19;;;;;;;25.02;8.75;;;27.00;59.50;;;;;;4166487;28;20113;-48
2021/08/03 08:36:22;;;;;;;37.33;10.15;;;27.10;59.50;;;;;;4183578;28;20072;-50
2021/08/03 08:38:24;;;;;;;27.38;9.38;;;27.00;59.70;;;;;;4166375;28;20073;-48
2021/08/03 08:40:27;;;;;;;24.13;8.75;;;27.00;59.60;;;;;;4166381;28;20050;-49
2021/08/03 08:42:30;;;;;;;20.80;8.45;;;27.00;59.50;;;;;;4166464;28;20061;-51
2021/08/03 08:44:33;;;;;;;27.58;9.48;;;27.00;59.70;;;;;;4166301;28;20193;-48
2021/08/03 08:46:36;;;;;;;23.38;8.95;;;27.00;59.70;;;;;;4183256;28;20057;-47
2021/08/03 08:48:39;;;;;;;23.63;9.35;;;27.00;59.70;;;;;;4183386;28;20077;-51
2021/08/03 08:50:42;;;;;;;23.30;9.50;;;27.00;59.70;;;;;;4183310;28;20120;-50
2021/08/03 08:52:45;;;;;;;22.52;9.82;;;27.00;59.60;;;;;;4183517;28;20049;-50
2021/08/03 08:54:48;;;;;;;26.20;8.65;;;27.00;59.80;;;;;;4183380;28;20109;-50
2021/08/03 08:56:50;;;;;;;23.95;8.93;;;27.00;59.70;;;;;;4166311;28;20058;-49
2021/08/03 08:58:53;;;;;;;32.03;10.48;;;27.00;59.80;;;;;;4150115;28;20054;-51
2021/08/03 09:00:55;;;;;;;22.17;8.98;;;27.00;59.90;;;;;;4149895;28;20085;-54
2021/08/03 09:02:58;;;;;;;23.08;10.05;;;27.00;59.80;;;;;;4166279;28;20050;-49
2021/08/03 09:05:02;;;;;;;24.95;9.02;;;27.00;59.80;;;;;;4183231;28;20068;-49
2021/08/03 09:07:07;;;;;;;23.15;8.82;;;27.10;59.90;;;;;;4165902;28;20507;-48
2021/08/03 09:09:16;;;;;;;17.58;8.65;;;27.00;59.80;;;;;;4165761;28;20097;-50
2021/08/03 09:11:20;;;;;;;27.60;9.52;;;27.00;59.80;;;;;;4183114;28;20049;-51
2021/08/03 09:13:22;;;;;;;;;;;27.00;59.80;;;;;;4183431;28;20045;-48
2021/08/03 09:15:25;;;;;;;19.55;7.32;;;27.00;59.90;;;;;;4182981;28;19921;-47
2021/08/03 09:17:29;;;;;;;20.00;8.32;;;27.00;59.80;;;;;;4183063;28;20048;-47
2021/08/03 09:19:37;;;;;;;22.48;8.68;;;27.00;59.80;;;;;;4183162;28;20109;-47
2021/08/03 09:21:39;;;;;;;19.77;8.70;;;27.00;59.90;;;;;;4183168;28;20046;-45
2021/08/03 09:23:45;;;;;;;26.65;9.77;;;27.00;60.10;;;;;;4182964;28;20056;-47
2021/08/03 09:25:58;;;;;;;25.35;8.70;;;27.00;60.00;;;;;;4182627;28;20071;-48
2021/08/03 09:28:03;;;;;;;20.63;8.82;;;27.00;59.90;;;;;;4182959;28;20045;-46
2021/08/03 09:30:07;;;;;;;20.83;7.95;;;27.10;59.90;;;;;;4183208;28;20477;-46
2021/08/03 09:32:09;;;;;;;23.23;8.60;;;27.00;59.90;;;;;;4183118;28;20045;-47
2021/08/03 09:34:16;;;;;;;21.90;8.65;;;27.00;60.00;;;;;;4182905;28;20056;-46
2021/08/03 09:36:44;;;;;;;19.90;8.70;;;27.00;60.00;;;;;;4182883;28;20048;-46
2021/08/03 09:38:46;;;;;;;18.85;8.13;;;27.00;60.00;;;;;;4182973;28;20049;-47
2021/08/03 09:40:50;;;;;;;25.67;8.95;;;27.10;60.10;;;;;;4182736;28;20071;-46
2021/08/03 09:43:04;;;;;;;21.73;8.82;;;27.00;60.10;;;;;;4182540;28;20068;-47
2021/08/03 09:45:06;;;;;;;23.33;9.10;;;27.00;60.10;;;;;;4182904;28;20075;-47
2021/08/03 09:47:09;;;;;;;17.58;7.97;;;27.00;60.00;;;;;;4182729;28;20094;-51
2021/08/03 09:49:13;;;;;;;20.52;9.20;;;27.00;60.10;;;;;;4182535;28;20054;-53
2021/08/03 09:51:15;;;;;;;21.80;9.15;;;27.10;60.10;;;;;;4182446;28;20052;-53
2021/08/03 09:53:49;;;;;;;19.00;8.75;;;27.10;60.10;;;;;;4182488;28;20128;-49
2021/08/03 09:55:54;;;;;;;16.60;8.10;;;27.00;60.10;;;;;;4181697;28;20045;-50
2021/08/03 09:58:05;;;;;;;14.90;7.93;;;27.10;60.00;;;;;;4182309;28;20056;-51
2021/08/03 10:00:27;;;;;;;19.05;8.65;;;27.00;60.20;;;;;;4182556;28;20054;-50
2021/08/03 10:02:30;;;;;;;22.25;8.90;;;27.00;60.20;;;;;;4182315;28;20053;-52
2021/08/03 10:04:33;;;;;;;23.60;8.10;;;27.10;60.20;;;;;;4165099;28;20054;-49
2021/08/03 10:06:37;;;;;;;17.67;7.75;;;27.10;60.10;;;;;;4182186;28;20084;-50
2021/08/03 10:08:39;;;;;;;20.45;8.50;;;27.00;60.40;;;;;;4164945;28;20125;-49
2021/08/03 10:10:44;;;;;;;19.05;8.95;;;27.00;60.30;;;;;;4165109;28;20064;-48
2021/08/03 10:12:46;;;;;;;19.23;8.73;;;27.00;60.40;;;;;;4148981;28;20054;-46
2021/08/03 10:14:49;;;;;;;18.77;8.68;;;27.00;60.30;;;;;;4182388;28;20045;-48
2021/08/03 10:16:53;;;;;;;22.58;8.48;;;27.00;60.30;;;;;;4165111;28;20046;-50
2021/08/03 10:18:57;;;;;;;;;;;27.00;60.20;;;;;;4182540;28;20073;-48
2021/08/03 10:21:02;;;;;;;22.42;8.65;;;27.00;60.30;;;;;;4182092;28;19977;-51
2021/08/03 10:23:07;;;;;;;19.02;8.80;;;27.00;60.20;;;;;;4164694;28;20116;-48
2021/08/03 10:25:12;;;;;;;14.95;8.00;;;27.00;60.30;;;;;;4164876;28;20105;-49
2021/08/03 10:27:16;;;;;;;17.05;7.13;;;27.10;60.30;;;;;;4164912;28;20073;-49
2021/08/03 10:29:24;;;;;;;17.98;7.68;;;27.00;60.30;;;;;;4181826;28;20054;-46
2021/08/03 10:31:38;;;;;;;13.88;7.70;;;27.00;60.30;;;;;;4182031;28;20049;-51
2021/08/03 10:33:43;;;;;;;21.88;8.20;;;27.10;60.30;;;;;;4148534;28;20121;-46
2021/08/03 10:35:49;;;;;;;;;;;27.00;60.30;;;;;;4165449;28;20056;-48
2021/08/03 10:37:58;;;;;;;15.85;7.90;;;27.10;60.30;;;;;;4181213;28;19927;-49
2021/08/03 10:40:00;;;;;;;17.58;8.27;;;27.10;60.30;;;;;;4181102;28;20061;-51
2021/08/03 10:42:03;;;;;;;18.60;8.57;;;27.10;60.30;;;;;;4164717;28;20129;-51
2021/08/03 10:44:40;;;;;;;18.85;8.20;;;27.00;60.40;;;;;;4181584;28;20084;-51
2021/08/03 10:46:43;;;;;;;13.90;7.47;;;27.10;60.30;;;;;;4181953;28;20064;-47